Latest Weather Observations for Essendon Airport

IDV60901

Issued at 5:51 pm EST Sunday 29 May 2016 (issued every 10 minutes, with the page automatically refreshed every 10 minutes)

About weather observations | Map of Melbourne area stations | Latest observations for Melbourne area | Other Formats
Station Details ID: 086038 Name: ESSENDON AIRPORT Lat: -37.73 Lon: 144.91 Height: 78.4 m
Data from the previous 72 hours. | See also: Recent months at Essendon Airport
Date/Time
EST
Tmp

°C
App
Tmp
°C
Dew
Point
°C
Rel
Hum
%
Delta-T

°C
Wind Press
QNH
hPa
Press
MSL
hPa
Rain
since
9 am
mm
Dir
 
Spd
km/h
Gust
km/h
Spd
kts
Gust
kts
29/05:30pm 10.9 8.3 4.4 64 2.9 WSW 7 9 4 5 1021.2 1021.2 0.0
29/05:00pm 11.5 8.2 4.3 61 3.2 W 11 13 6 7 1021.1 1021.1 0.0
29/04:30pm 12.0 8.7 4.5 60 3.4 W 11 15 6 8 1020.9 1020.9 0.0
29/04:00pm 12.5 8.8 4.5 58 3.6 W 13 17 7 9 1020.8 1020.8 0.0
29/03:30pm 12.5 8.6 5.2 61 3.4 W 15 19 8 10 1020.6 1020.6 0.0
29/03:00pm 12.1 8.2 5.3 63 3.1 WSW 15 20 8 11 1020.7 1020.7 0.0
29/02:30pm 12.5 8.3 5.7 63 3.2 WSW 17 20 9 11 1020.7 1020.7 0.0
29/02:00pm 12.6 7.9 5.1 60 3.5 WSW 19 26 10 14 1020.4 1020.4 0.0
29/01:30pm 12.6 8.2 4.8 59 3.6 WSW 17 24 9 13 1020.4 1020.4 0.0
29/01:00pm 12.8 8.2 5.5 61 3.4 W 19 26 10 14 1020.5 1020.5 0.0
29/12:30pm 12.4 7.5 5.1 61 3.4 W 20 26 11 14 1020.5 1020.5 0.0
29/12:00pm 12.2 6.5 4.9 61 3.3 W 24 33 13 18 1020.6 1020.6 0.0
29/11:30am 11.9 6.1 4.4 60 3.4 W 24 30 13 16 1020.8 1020.8 0.0
29/11:00am 11.9 6.5 4.4 60 3.4 W 22 28 12 15 1020.7 1020.7 0.0
29/10:30am 11.5 5.8 4.7 63 3.1 WSW 24 32 13 17 1020.8 1020.8 0.0
29/10:00am 11.6 5.1 4.6 62 3.2 WSW 28 33 15 18 1020.5 1020.5 0.0
29/09:30am 11.1 6.3 4.8 65 2.9 W 19 24 10 13 1020.0 1020.0 0.0
29/09:00am 10.4 5.6 4.5 67 2.6 W 19 24 10 13 1019.7 1019.7 2.0
29/08:30am 10.0 5.0 4.4 68 2.5 W 20 24 11 13 1019.4 1019.4 2.0
29/08:00am 9.6 5.1 4.4 70 2.3 W 17 24 9 13 1019.2 1019.2 2.0
29/07:30am 9.5 4.7 4.5 71 2.2 W 19 22 10 12 1018.8 1018.8 2.0
29/07:00am 9.4 4.4 4.8 73 2.1 WSW 20 26 11 14 1018.7 1018.7 2.0
29/06:30am 9.5 4.5 4.5 71 2.2 W 20 26 11 14 1018.4 1018.4 2.0
29/06:00am 9.6 4.2 4.4 70 2.3 W 22 30 12 16 1018.1 1018.1 2.0
29/05:30am 9.5 4.5 4.5 71 2.2 W 20 24 11 13 1017.9 1017.9 2.0
29/05:00am 9.5 4.6 4.3 70 2.3 W 19 24 10 13 1017.7 1017.7 2.0
29/04:30am 9.3 4.5 4.5 72 2.1 W 19 28 10 15 1017.6 1017.6 2.0
29/04:00am 9.4 4.4 4.4 71 2.2 W 20 30 11 16 1017.4 1017.4 2.0
29/03:30am 9.6 4.8 4.4 70 2.3 W 19 26 10 14 1017.4 1017.4 2.0
29/03:00am 9.6 4.6 4.4 70 2.3 W 20 26 11 14 1017.3 1017.3 2.0
29/02:30am 9.6 4.3 4.8 72 2.2 WNW 22 30 12 16 1017.0 1017.0 2.0
29/02:00am 9.8 4.5 5.0 72 2.2 W 22 30 12 16 1016.9 1016.9 2.0
29/01:30am 9.6 4.4 5.4 75 1.9 W 22 28 12 15 1016.5 1016.5 2.0
29/01:00am 9.7 5.1 5.5 75 1.9 W 19 26 10 14 1016.5 1016.5 2.0
29/12:30am 9.6 5.0 5.6 76 1.8 W 19 26 10 14 1016.7 1016.7 2.0
29/12:00am 9.6 5.5 6.3 80 1.5 W 17 22 9 12 1016.8 1016.8 2.0
 
Date/Time
EST
Tmp

°C
App
Tmp
°C
Dew
Point
°C
Rel
Hum
%
Delta-T

°C
Wind Press
QNH
hPa
Press
MSL
hPa
Rain
since
9 am
mm
Dir
 
Spd
km/h
Gust
km/h
Spd
kts
Gust
kts
28/11:30pm 9.5 5.8 6.2 80 1.5 W 15 22 8 12 1016.8 1016.8 2.0
28/11:00pm 9.3 5.7 6.6 83 1.3 W 15 20 8 11 1016.6 1016.6 2.0
28/10:30pm 8.7 4.4 6.8 88 0.9 W 19 24 10 13 1016.5 1016.5 2.0
28/10:00pm 9.0 4.5 6.8 86 1.0 WSW 20 26 11 14 1016.6 1016.6 2.0
28/09:30pm 9.7 5.8 7.1 84 1.2 WSW 17 26 9 14 1016.6 1016.6 2.0
28/09:00pm 9.9 5.6 7.0 82 1.4 WSW 19 30 10 16 1016.6 1016.6 2.0
28/08:30pm 10.1 4.8 6.8 80 1.6 WSW 24 30 13 16 1016.4 1016.4 2.0
28/08:00pm 9.7 5.2 7.0 83 1.3 WSW 20 28 11 15 1015.9 1015.9 2.0
28/07:30pm 9.8 5.9 7.2 84 1.2 WSW 17 22 9 12 1015.7 1015.7 2.0
28/07:00pm 10.2 6.3 6.9 80 1.6 WSW 17 20 9 11 1015.5 1015.5 2.0
28/06:30pm 10.8 7.1 6.4 74 2.1 SW 15 20 8 11 1014.9 1015.0 2.0
28/06:00pm 11.1 7.0 6.3 72 2.3 SW 17 20 9 11 1014.4 1014.5 2.0
28/05:30pm 11.2 7.2 6.7 74 2.1 SW 17 20 9 11 1013.9 1014.0 2.0
28/05:00pm 11.8 7.3 7.1 73 2.3 SW 20 26 11 14 1013.5 1013.6 2.0
28/04:30pm 11.6 7.5 7.9 78 1.8 SSW 19 26 10 14 1013.2 1013.3 2.0
28/04:00pm 10.8 5.8 8.0 83 1.4 SSW 24 37 13 20 1013.1 1013.2 2.0
28/03:30pm 12.2 5.5 7.3 72 2.4 SSW 32 43 17 23 1012.7 1012.8 2.0
28/03:00pm 12.6 8.8 8.9 78 1.9 SSW 19 26 10 14 1012.3 1012.4 2.0
28/02:30pm 11.7 9.1 10.8 94 0.5 SW 15 19 8 10 1012.1 1012.2 2.0
28/02:00pm 11.2 8.7 11.0 99 0.1 SW 15 19 8 10 1011.8 1011.9 2.0
28/01:30pm 10.9 8.7 10.7 99 0.1 SW 13 17 7 9 1011.7 1011.8 2.0
28/01:00pm 10.2 7.8 10.1 99 0.1 SSW 13 17 7 9 1011.9 1012.0 1.8
28/12:30pm 10.4 6.7 10.2 99 0.1 SW 20 32 11 17 1011.6 1011.7 1.6
28/12:07pm 10.3 6.8 10.1 99 0.1 SW 19 26 10 14 1011.7 1011.8 1.6
28/12:00pm 10.1 5.6 10.0 99 0.1 SW 24 41 13 22 1011.8 1011.9 1.6
28/11:56am 10.3 5.4 10.0 98 0.2 SW 26 41 14 22 1011.8 1011.9 1.6
28/11:30am 11.1 7.2 10.8 98 0.2 SW 22 30 12 16 1011.7 1011.8 0.8
28/11:00am 10.6 6.6 9.2 91 0.7 SW 20 30 11 16 1011.6 1011.7 0.4
28/10:30am 10.9 7.2 9.5 91 0.7 WSW 19 22 10 12 1011.6 1011.7 0.0
28/10:00am 10.8 7.6 10.0 95 0.4 WSW 17 20 9 11 1011.3 1011.3 0.0
28/09:30am 9.9 7.0 9.8 99 0.1 WSW 15 20 8 11 1011.1 1011.1 0.0
28/09:00am 9.0 6.7 8.9 99 0.0 W 11 15 6 8 1010.8 1010.8 0.4
28/08:30am 8.0 5.0 7.9 99 0.0 WNW 13 17 7 9 1010.5 1010.5 0.4
28/08:00am 7.7 4.7 7.6 99 0.0 WNW 13 15 7 8 1010.3 1010.3 0.4
28/07:30am 7.3 4.2 7.2 99 0.0 W 13 17 7 9 1010.3 1010.3 0.0
28/07:00am 7.1 5.1 7.0 99 0.0 W 7 11 4 6 1009.8 1009.8 0.0
28/06:30am 5.9 3.8 5.8 99 0.0 NW 6 9 3 5 1009.4 1009.4 0.0
28/06:00am 5.8 3.1 5.7 99 0.0 WNW 9 11 5 6 1009.1 1009.1 0.0
28/05:30am 4.8 2.5 4.7 99 0.0 NW 6 7 3 4 1008.7 1008.7 0.0
28/05:00am 5.3 2.5 5.2 99 0.0 WNW 9 11 5 6 1008.7 1008.7 0.0
28/04:30am 5.4 2.6 5.1 98 0.1 WNW 9 11 5 6 1008.5 1008.5 0.0
28/04:00am 6.0 5.0 5.6 97 0.2 CALM 0 0 0 0 1008.4 1008.4 0.0
28/03:30am 5.7 4.6 5.1 96 0.3 CALM 0 0 0 0 1008.2 1008.2 0.0
28/03:00am 6.4 5.4 5.7 95 0.3 CALM 0 0 0 0 1008.3 1008.3 0.0
28/02:30am 6.5 5.4 5.3 92 0.5 CALM 0 0 0 0 1008.2 1008.2 0.0
28/02:00am 7.8 7.0 6.6 92 0.6 CALM 0 0 0 0 1008.1 1008.1 0.0
28/01:30am 8.0 7.3 6.8 92 0.6 CALM 0 0 0 0 1008.0 1008.0 0.0
28/01:00am 7.8 7.1 6.9 94 0.4 CALM 0 0 0 0 1008.1 1008.1 0.0
28/12:30am 7.7 5.8 6.8 94 0.4 ENE 6 7 3 4 1008.1 1008.1 0.0
28/12:00am 7.7 5.8 6.6 93 0.5 ENE 6 9 3 5 1008.2 1008.2 0.0
 
Date/Time
EST
Tmp

°C
App
Tmp
°C
Dew
Point
°C
Rel
Hum
%
Delta-T

°C
Wind Press
QNH
hPa
Press
MSL
hPa
Rain
since
9 am
mm
Dir
 
Spd
km/h
Gust
km/h
Spd
kts
Gust
kts
27/11:30pm 7.7 5.6 6.8 94 0.4 NNE 7 7 4 4 1008.2 1008.2 0.0
27/11:00pm 7.4 5.3 6.7 95 0.3 NE 7 9 4 5 1008.2 1008.2 0.0
27/10:30pm 7.4 5.3 6.5 94 0.4 NE 7 9 4 5 1008.1 1008.1 0.0
27/10:00pm 7.1 4.5 6.0 93 0.5 ENE 9 9 5 5 1008.0 1008.0 0.0
27/09:30pm 7.6 4.9 5.7 88 0.9 E 9 9 5 5 1007.9 1007.9 0.0
27/09:00pm 8.5 6.2 5.8 83 1.2 ENE 7 9 4 5 1007.8 1007.8 0.0
27/08:30pm 8.6 6.3 5.7 82 1.3 E 7 9 4 5 1007.7 1007.7 0.0
27/08:00pm 8.6 5.5 5.5 81 1.4 ESE 11 13 6 7 1007.5 1007.5 0.0
27/07:30pm 9.6 6.9 5.8 77 1.7 ENE 9 9 5 5 1007.5 1007.5 0.0
27/07:00pm 9.6 7.4 6.1 79 1.6 ENE 7 7 4 4 1007.3 1007.3 0.0
27/06:30pm 9.7 7.5 5.3 74 2.0 SE 6 7 3 4 1007.2 1007.2 0.0
27/06:00pm 10.4 8.1 5.8 73 2.1 SE 7 9 4 5 1007.0 1007.0 0.0
27/05:30pm 10.5 8.2 5.9 73 2.1 SSE 7 11 4 6 1006.7 1006.7 0.0
27/05:00pm 11.3 8.7 6.0 70 2.5 SE 9 11 5 6 1006.7 1006.7 0.0
27/04:30pm 12.4 9.8 6.2 66 2.9 SSE 9 13 5 7 1006.6 1006.6 0.0
27/04:00pm 13.3 10.4 6.6 64 3.2 ESE 11 15 6 8 1006.6 1006.6 0.0
27/03:30pm 14.1 11.0 5.5 56 4.1 WSW 11 15 6 8 1006.6 1006.6 0.0
27/03:00pm 14.2 11.5 5.8 57 4.0 SSW 9 19 5 10 1006.5 1006.5 0.0
27/02:30pm 14.1 12.0 6.7 61 3.6 SSW 7 13 4 7 1006.5 1006.5 0.0
27/02:00pm 13.5 10.6 6.6 63 3.3 SW 11 20 6 11 1006.6 1006.6 0.0
27/01:30pm 13.2 8.7 6.3 63 3.3 WSW 19 26 10 14 1006.7 1006.7 0.0
27/01:00pm 12.9 9.3 6.7 66 3.0 W 15 20 8 11 1007.0 1007.0 0.0
27/12:30pm 13.0 8.7 7.0 67 2.9 W 19 26 10 14 1007.2 1007.2 0.0
27/12:00pm 12.8 8.8 6.8 67 2.9 W 17 22 9 12 1007.4 1007.4 0.0
27/11:30am 12.4 8.0 7.3 71 2.5 W 20 26 11 14 1007.8 1007.8 0.0
27/11:00am 12.5 8.3 8.4 76 2.0 W 20 28 11 15 1008.0 1008.0 0.0
27/10:30am 11.8 7.6 8.1 78 1.8 W 20 30 11 16 1008.1 1008.1 0.0
27/10:00am 11.0 6.9 7.7 80 1.6 W 19 26 10 14 1008.1 1008.1 0.0
27/09:30am 10.0 6.2 7.6 85 1.2 W 17 26 9 14 1008.2 1008.2 0.0
27/09:00am 9.8 5.7 7.9 88 0.9 WNW 19 24 10 13 1007.9 1007.9 3.4
27/08:30am 8.8 4.6 7.4 91 0.7 WNW 19 26 10 14 1007.9 1007.9 3.4
27/08:00am 7.9 4.0 7.0 94 0.4 WNW 17 20 9 11 1007.7 1007.7 3.4
27/07:30am 7.6 3.6 6.5 93 0.5 WNW 17 22 9 12 1007.6 1007.6 3.4
27/07:00am 8.0 4.0 6.8 92 0.6 WNW 17 20 9 11 1007.5 1007.5 3.4
27/06:30am 8.0 4.0 6.6 91 0.6 WNW 17 20 9 11 1007.4 1007.4 3.4
27/06:00am 7.9 3.5 6.4 90 0.7 WNW 19 24 10 13 1007.2 1007.2 3.4
27/05:30am 8.3 3.9 6.6 89 0.8 W 19 20 10 11 1007.2 1007.2 3.4
27/05:00am 8.5 3.9 6.3 86 1.0 WNW 20 26 11 14 1007.2 1007.2 3.4
27/04:30am 8.4 4.0 6.4 87 0.9 WNW 19 24 10 13 1007.2 1007.2 3.4
27/04:00am 8.2 4.1 6.3 88 0.9 WNW 17 20 9 11 1007.0 1007.0 3.4
27/03:30am 8.1 4.0 6.2 88 0.9 W 17 22 9 12 1006.9 1006.9 3.4
27/03:00am 8.1 3.4 6.1 87 0.9 WNW 20 28 11 15 1007.0 1007.0 3.4
27/02:30am 8.0 3.9 6.3 89 0.8 WNW 17 22 9 12 1007.1 1007.1 3.4
27/02:00am 7.9 3.5 6.4 90 0.7 WNW 19 26 10 14 1007.1 1007.1 3.4
27/01:30am 7.8 3.7 6.3 90 0.7 WNW 17 20 9 11 1007.0 1007.0 3.4
27/01:00am 7.8 3.3 6.1 89 0.8 WNW 19 24 10 13 1007.0 1007.0 3.4
27/12:30am 7.9 4.2 6.4 90 0.7 WNW 15 19 8 10 1007.2 1007.2 3.4
27/12:00am 8.3 3.9 6.6 89 0.8 WNW 19 26 10 14 1007.2 1007.2 3.4
 
Date/Time
EST
Tmp

°C
App
Tmp
°C
Dew
Point
°C
Rel
Hum
%
Delta-T

°C
Wind Press
QNH
hPa
Press
MSL
hPa
Rain
since
9 am
mm
Dir
 
Spd
km/h
Gust
km/h
Spd
kts
Gust
kts
26/11:30pm 8.5 4.0 7.1 91 0.7 W 20 28 11 15 1007.1 1007.1 3.4
26/11:00pm 8.4 3.9 6.9 90 0.7 W 20 26 11 14 1007.1 1007.1 3.4
26/10:30pm 8.5 4.0 6.8 89 0.8 W 20 28 11 15 1007.2 1007.2 3.4
26/10:00pm 8.5 4.3 7.3 92 0.6 W 19 26 10 14 1007.3 1007.3 3.4
26/09:30pm 8.3 4.8 7.2 93 0.5 WNW 15 19 8 10 1007.1 1007.1 3.4
26/09:00pm 8.6 4.8 7.7 94 0.4 WNW 17 20 9 11 1007.0 1007.0 3.4
26/08:30pm 8.9 4.8 7.7 92 0.6 W 19 24 10 13 1006.8 1006.8 3.4
26/08:00pm 9.5 5.5 8.3 92 0.6 W 19 26 10 14 1006.6 1006.6 3.4
26/07:30pm 10.0 6.6 9.1 94 0.4 W 17 22 9 12 1006.2 1006.2 3.4
26/07:00pm 9.9 6.9 9.1 95 0.4 W 15 19 8 10 1006.0 1006.0 3.4
26/06:30pm 10.3 6.5 8.9 91 0.7 WSW 19 22 10 12 1005.8 1005.8 3.4
26/06:00pm 10.3 6.5 8.9 91 0.7 WSW 19 26 10 14 1005.4 1005.4 3.4

Latest Capital City Observations: Canberra | Sydney | Melbourne | Brisbane | Adelaide | Perth | Hobart | Darwin

Other Formats:

Comma delimited format used in spreadsheet applications
http://www.bom.gov.au/fwo/IDV60901/IDV60901.95866.axf

JavaScript Object Notation format (JSON) in row-major order
http://www.bom.gov.au/fwo/IDV60901/IDV60901.95866.json